メインページ
METAR-TAF:

METAR-TAF

空港 :

ヌメア国際空港, ニューカレドニア

緯度: 22-01S, 経度: 166-13E, 海抜: 16m

現時点の気象観測

当レポートは18分前の16:00(UTC)に作成
無風
気温 23°C
湿度 94%
気圧 1011 hPa
視程10km以上

METAR: NWWW 231600Z AUTO 00000KT 9999 NCD 23/22 Q1011 NOSIG

時間: 03:18 (16:18 UTC)

予報

当レポートは5時間18分前の11:00(UTC)に作成
予報は23日の 12時(UTC)から 24日の 12時(UTC)まで有効
変向風 2kt
視程10km以上
高度3500ftの雲はほとんどない
高度5000ftの千切れ雲あり
23日の 23時(UTC)から 24日の 01時(UTC)まで徐々に
南/南東の風 15kt
24日の 01時(UTC)から 24日の 07時(UTC)まで一時的に
高度2500ftの雲は散在している, 積乱雲.
激しい雷雨, 雨
24日の 07時(UTC)から 24日の 09時(UTC)まで徐々に
変向風 2kt

TAF: NWWW 231100Z 2312/2412 VRB02KT 9999 FEW035 BKN050 BECMG 2323/2401 15015KT TEMPO 2401/2407 TSRA SCT025CB BECMG 2407/2409 VRB02KT

4,000以上の空港の気象観測と天気予報(METAR報とTAF報)

利用可能な観測所は地図上に黄色い丸と赤い丸で示す。

丸の上にカーソルを重ねると観測所名を参照できる。

次にクリックすると気象観測と天気予報を参照できる。

マップの切り替え:黒色「×」印の緑ボタンをクリックして拡大、「-」印の緑ボタンをクリックして縮小、緑色の三角印をクリックして隣りの地図に切り替え


METAR-TAF: